Time;durP1;ratioP1;P1;durP2;ratioP2;P2;SDS_P1;SDS_P2;PMS_P1;PMS_P2;Temp;Humidity;BMP_temperature;BMP_pressure;BME280_temperature;BME280_humidity;BME280_pressure;Samples;Min_cycle;Max_cycle;Signal;HPM_P1;HPM_P2
2022/08/24 00:02:22;;;;;;;3.47;1.60;;;;;;;17.44;84.73;101824.47;4913080;29;20191;-48
2022/08/24 00:04:49;;;;;;;4.93;1.50;;;;;;;17.41;85.19;101819.25;4912723;29;20208;-47
2022/08/24 00:07:14;;;;;;;5.10;1.45;;;;;;;17.43;85.47;101826.31;4910530;29;20227;-48
2022/08/24 00:09:41;;;;;;;4.13;1.27;;;;;;;17.39;85.76;101830.16;4909646;29;20267;-49
2022/08/24 00:12:08;;;;;;;5.18;1.45;;;;;;;17.27;86.06;101826.25;4912634;29;20737;-48
2022/08/24 00:14:34;;;;;;;2.55;1.48;;;;;;;17.29;86.79;101829.75;4912648;28;20615;-47
2022/08/24 00:17:00;;;;;;;7.65;1.83;;;;;;;17.32;86.86;101819.69;4912829;29;20195;-48
2022/08/24 00:19:26;;;;;;;4.95;1.77;;;;;;;17.28;87.45;101824.41;4912738;29;20203;-48
2022/08/24 00:21:52;;;;;;;5.22;1.48;;;;;;;17.28;87.66;101819.84;4912876;29;20188;-47
2022/08/24 00:24:18;;;;;;;5.88;1.58;;;;;;;17.25;88.32;101814.59;4912712;29;20242;-48
2022/08/24 00:26:45;;;;;;;3.80;1.48;;;;;;;17.29;88.56;101824.34;4912649;29;20180;-48
2022/08/24 00:29:12;;;;;;;5.95;1.60;;;;;;;17.29;88.77;101821.63;4909772;28;20291;-48
2022/08/24 00:31:38;;;;;;;2.70;1.27;;;;;;;17.30;88.92;101828.78;4912561;29;20243;-48
2022/08/24 00:34:03;;;;;;;5.82;1.88;;;;;;;17.32;89.25;101828.72;4912409;29;20683;-51
2022/08/24 00:36:29;;;;;;;3.35;1.40;;;;;;;17.33;89.65;101835.88;4926955;29;20188;-47
2022/08/24 00:38:55;;;;;;;5.80;1.75;;;;;;;17.30;89.62;101836.91;4912147;29;20283;-48
2022/08/24 00:41:21;;;;;;;4.72;1.75;;;;;;;17.27;89.85;101828.94;4912423;29;20215;-50
2022/08/24 00:44:01;;;;;;;6.30;1.83;;;;;;;17.29;90.09;101834.25;4912315;29;20212;-48
2022/08/24 00:46:42;;;;;;;3.53;1.65;;;;;;;17.31;90.21;101843.19;4911076;29;20238;-48
2022/08/24 00:49:32;;;;;;;4.55;1.60;;;;;;;17.23;90.32;101843.59;4911582;29;20200;-47
2022/08/24 00:52:32;;;;;;;3.20;1.63;;;;;;;17.20;90.82;101838.31;4912200;29;20236;-48
2022/08/24 00:55:08;;;;;;;3.45;1.48;;;;;;;17.21;91.06;101840.09;4911672;29;20228;-49
2022/08/24 00:57:41;;;;;;;6.90;1.75;;;;;;;17.14;91.23;101841.31;4910498;29;20624;-49
2022/08/24 01:00:17;;;;;;;3.70;1.63;;;;;;;17.15;91.32;101840.38;4909221;29;20670;-49
2022/08/24 01:02:47;;;;;;;3.85;1.75;;;;;;;17.08;91.48;101845.22;4910042;29;20183;-47
2022/08/24 01:05:16;;;;;;;5.35;1.67;;;;;;;17.13;91.65;101836.88;4910530;29;20216;-48
2022/08/24 01:07:42;;;;;;;3.65;1.80;;;;;;;17.08;91.72;101839.81;4911027;29;20188;-49
2022/08/24 01:10:13;;;;;;;6.18;1.92;;;;;;;17.05;91.66;101834.56;4926487;29;20766;-48
2022/08/24 01:12:43;;;;;;;5.35;1.70;;;;;;;17.13;91.16;101836.88;4910498;29;20274;-49
2022/08/24 01:15:10;;;;;;;4.53;1.70;;;;;;;17.13;91.29;101833.28;4909484;28;20219;-48
2022/08/24 01:20:22;;;;;;;5.28;1.77;;;;;;;17.11;91.34;101827.94;4912379;29;20192;-48
2022/08/24 01:23:10;;;;;;;5.25;1.63;;;;;;;17.12;91.16;101835.13;4910525;28;20639;-48
2022/08/24 01:25:37;;;;;;;3.28;1.77;;;;;;;17.20;91.26;101824.78;4910705;29;20318;-48
2022/08/24 01:28:07;;;;;;;4.45;1.75;;;;;;;17.17;91.03;101834.91;4911690;29;20633;-48
2022/08/24 01:30:33;;;;;;;5.03;1.80;;;;;;;17.16;90.86;101834.00;4908352;28;20612;-49
2022/08/24 01:33:02;;;;;;;4.70;1.52;;;;;;;17.11;91.28;101832.50;4892858;29;20196;-51
2022/08/24 01:35:30;;;;;;;3.47;1.88;;;;;;;17.09;91.34;101836.13;4922624;29;20590;-51
2022/08/24 01:37:58;;;;;;;7.38;1.85;;;;;;;17.08;91.55;101836.22;4911954;29;20188;-50
2022/08/24 01:40:34;;;;;;;7.88;2.08;;;;;;;17.08;91.52;101836.22;4909618;29;20188;-50
2022/08/24 01:42:59;;;;;;;4.75;1.88;;;;;;;17.04;91.66;101842.75;4907801;29;20199;-50
2022/08/24 01:45:25;;;;;;;5.85;1.75;;;;;;;16.99;91.90;101842.06;4902763;29;20209;-49
2022/08/24 01:47:51;;;;;;;10.35;1.85;;;;;;;16.96;92.06;101834.13;4926243;28;20191;-51
2022/08/24 01:50:16;;;;;;;6.68;1.80;;;;;;;16.94;92.48;101834.19;4907183;29;20595;-48
2022/08/24 01:52:43;;;;;;;6.60;2.10;;;;;;;16.92;92.60;101835.22;4911395;29;20558;-52
2022/08/24 01:55:12;;;;;;;3.45;2.03;;;;;;;16.86;92.78;101840.00;4910374;28;20216;-46
2022/08/24 01:57:39;;;;;;;4.70;2.03;;;;;;;16.89;93.03;101839.81;4917181;29;20212;-51
2022/08/24 02:00:08;;;;;;;5.93;2.20;;;;;;;16.81;93.18;101838.44;4909837;29;20275;-50
2022/08/24 02:02:39;;;;;;;3.15;1.65;;;;;;;16.86;93.60;101837.28;4911079;29;20180;-51
2022/08/24 02:05:07;;;;;;;3.28;2.00;;;;;;;16.78;93.72;101843.97;4925648;29;20277;-50
2022/08/24 02:07:32;;;;;;;5.93;1.90;;;;;;;16.73;93.90;101852.31;4925808;29;20382;-51
2022/08/24 02:09:58;;;;;;;5.00;2.00;;;;;;;16.74;94.30;101839.66;4910800;28;20267;-51
2022/08/24 02:12:24;;;;;;;6.47;1.95;;;;;;;16.72;94.42;101855.97;4925589;29;20626;-51
2022/08/24 02:14:50;;;;;;;6.13;1.90;;;;;;;16.65;94.67;101854.50;4909727;29;20242;-51
2022/08/24 02:17:17;;;;;;;4.85;1.83;;;;;;;16.62;94.98;101855.53;4894569;29;20279;-52
2022/08/24 02:19:45;;;;;;;6.88;2.80;;;;;;;16.62;95.18;101852.84;4925185;29;20258;-50
2022/08/24 02:22:11;;;;;;;5.38;2.20;;;;;;;16.63;95.37;101848.28;4911283;29;20536;-51
2022/08/24 02:24:37;;;;;;;4.40;1.75;;;;;;;16.68;95.31;101844.44;4909887;28;20540;-51
2022/08/24 02:27:04;;;;;;;3.15;2.00;;;;;;;16.71;95.00;101859.63;4910715;28;20191;-47
2022/08/24 02:29:30;;;;;;;6.68;2.20;;;;;;;16.70;94.93;101852.44;4910819;29;20246;-49
2022/08/24 02:31:56;;;;;;;3.20;2.17;;;;;;;16.73;94.73;101846.91;4909714;29;20268;-51
2022/08/24 02:34:22;;;;;;;6.65;2.20;;;;;;;16.69;94.66;101853.41;4909625;29;20220;-50
2022/08/24 02:36:48;;;;;;;3.00;1.70;;;;;;;16.72;94.74;101853.25;4911702;28;20238;-48
2022/08/24 02:39:14;;;;;;;6.32;2.17;;;;;;;16.71;94.87;101854.22;4900805;29;20200;-53
2022/08/24 02:41:42;;;;;;;3.33;1.70;;;;;;;16.74;94.84;101854.06;4909676;29;20172;-50
2022/08/24 02:44:08;;;;;;;4.53;1.92;;;;;;;16.72;94.80;101860.50;4909490;28;20208;-49
2022/08/24 02:46:34;;;;;;;7.93;2.33;;;;;;;16.71;95.03;101859.63;4925659;28;20238;-50
2022/08/24 02:49:00;;;;;;;7.88;2.25;;;;;;;16.73;94.99;101851.44;4925299;29;20207;-48
2022/08/24 02:51:29;;;;;;;4.35;1.80;;;;;;;16.75;94.91;101860.34;4925493;29;20208;-48
2022/08/24 02:53:56;;;;;;;6.07;2.25;;;;;;;16.71;95.02;101862.34;4901604;29;20201;-52
2022/08/24 02:56:23;;;;;;;4.30;1.98;;;;;;;16.69;95.22;101862.41;4921303;29;20203;-50
2022/08/24 02:58:49;;;;;;;6.25;2.33;;;;;;;16.69;95.43;101865.09;4925253;29;20194;-49
2022/08/24 03:01:16;;;;;;;7.45;2.03;;;;;;;16.71;95.57;101867.75;4909269;29;20184;-53
2022/08/24 03:03:43;;;;;;;3.28;2.15;;;;;;;16.71;95.55;101867.75;4900213;29;20195;-49
2022/08/24 03:06:09;;;;;;;3.40;1.77;;;;;;;16.69;95.62;101877.78;4909695;29;20290;-50
2022/08/24 03:08:35;;;;;;;4.53;1.92;;;;;;;16.61;95.64;101878.13;4925358;29;20188;-47
2022/08/24 03:11:02;;;;;;;4.47;1.88;;;;;;;16.56;95.88;101871.19;4925775;29;20219;-53
2022/08/24 03:13:29;;;;;;;7.13;2.00;;;;;;;16.53;96.21;101874.00;4913914;29;20180;-48
2022/08/24 03:15:57;;;;;;;3.35;1.80;;;;;;;16.52;96.37;101883.97;4913995;29;20188;-49
2022/08/24 03:18:27;;;;;;;4.28;1.95;;;;;;;16.45;96.71;101890.63;4914195;29;20546;-48
2022/08/24 03:20:54;;;;;;;4.97;2.40;;;;;;;16.37;96.91;101890.94;4928495;29;20558;-48
2022/08/24 03:23:20;;;;;;;4.40;2.20;;;;;;;16.32;97.66;101890.28;4918530;29;20278;-49
2022/08/24 03:25:46;;;;;;;5.80;2.05;;;;;;;16.39;98.09;101888.19;4912597;29;20215;-46
2022/08/24 03:28:12;;;;;;;7.13;2.17;;;;;;;16.35;98.04;101890.13;4914307;29;20214;-50
2022/08/24 03:30:41;;;;;;;6.38;2.38;;;;;;;16.32;98.58;101876.75;4927831;29;20188;-51
2022/08/24 03:33:07;;;;;;;4.07;1.92;;;;;;;16.35;98.73;101887.44;4900714;29;20245;-48
2022/08/24 03:35:32;;;;;;;5.72;2.60;;;;;;;16.35;99.04;101879.31;4913752;29;20683;-49
2022/08/24 03:37:59;;;;;;;5.15;2.40;;;;;;;16.30;99.35;101889.47;4912412;29;20817;-50
2022/08/24 03:40:25;;;;;;;4.80;2.20;;;;;;;16.27;99.71;101878.81;4913584;29;20238;-52
2022/08/24 03:42:54;;;;;;;5.97;2.47;;;;;;;16.26;100.00;101885.16;4915841;28;20253;-49
2022/08/24 03:45:21;;;;;;;6.07;2.60;;;;;;;16.27;100.00;101878.81;4913662;29;20506;-49
2022/08/24 03:47:47;;;;;;;6.53;2.50;;;;;;;16.24;100.00;101887.03;4913523;29;20184;-49
2022/08/24 03:50:13;;;;;;;5.50;2.50;;;;;;;16.24;100.00;101878.94;4898934;29;20568;-49
2022/08/24 03:52:40;;;;;;;7.30;3.08;;;;;;;16.26;100.00;101879.75;4902624;29;20755;-51
2022/08/24 03:55:07;;;;;;;3.45;2.35;;;;;;;16.27;100.00;101890.50;4920030;28;20208;-50
2022/08/24 03:57:33;;;;;;;7.55;2.80;;;;;;;16.16;100.00;101876.59;4911661;28;20267;-51
2022/08/24 04:00:00;;;;;;;7.43;2.67;;;;;;;16.18;100.00;101880.09;4905162;29;20176;-51
2022/08/24 04:02:26;;;;;;;9.10;2.90;;;;;;;16.11;100.00;101877.72;4927773;29;20647;-48
2022/08/24 04:04:51;;;;;;;8.02;2.90;;;;;;;16.16;100.00;101878.38;4912931;29;20218;-49
2022/08/24 04:07:17;;;;;;;6.13;2.85;;;;;;;16.14;100.00;101883.03;4923305;29;20203;-46
2022/08/24 04:09:43;;;;;;;7.90;2.70;;;;;;;16.19;100.00;101878.28;4908206;29;20176;-47
2022/08/24 04:12:09;;;;;;;6.82;2.85;;;;;;;16.17;100.00;101882.88;4921079;28;20659;-48
2022/08/24 04:14:34;;;;;;;6.18;2.90;;;;;;;16.17;100.00;101885.56;4913505;29;20211;-48
2022/08/24 04:17:07;;;;;;;3.75;2.78;;;;;;;16.28;100.00;101886.84;4910456;29;20246;-48
2022/08/24 04:19:56;;;;;;;6.45;2.88;;;;;;;16.25;100.00;101894.22;4898201;29;20185;-51
2022/08/24 04:22:27;;;;;;;4.65;2.70;;;;;;;16.20;100.00;101894.44;4912316;29;20246;-48
2022/08/24 04:24:53;;;;;;;4.15;3.03;;;;;;;16.24;100.00;101893.31;4911958;29;20207;-49
2022/08/24 04:27:19;;;;;;;13.98;3.88;;;;;;;16.20;100.00;101896.25;4927279;29;20210;-52
2022/08/24 04:29:45;;;;;;;5.30;3.05;;;;;;;16.23;100.00;101897.00;4912098;28;20168;-50
2022/08/24 04:32:10;;;;;;;5.57;3.33;;;;;;;16.25;100.00;101900.50;4920876;29;20218;-48
2022/08/24 04:34:35;;;;;;;5.03;2.80;;;;;;;16.28;100.00;101907.59;4926790;29;20706;-50
2022/08/24 04:37:01;;;;;;;4.55;2.50;;;;;;;16.35;100.00;101900.09;4926856;29;20295;-51
2022/08/24 04:39:28;;;;;;;4.93;2.80;;;;;;;16.38;100.00;101913.50;4902144;29;20191;-51
2022/08/24 04:42:10;;;;;;;7.65;2.85;;;;;;;16.26;100.00;101912.19;4926762;29;20191;-50
2022/08/24 04:44:38;;;;;;;5.35;2.85;;;;;;;16.25;100.00;101902.34;4924801;29;20213;-51
2022/08/24 04:47:04;;;;;;;6.95;3.25;;;;;;;16.38;100.00;101914.34;4926747;29;20188;-49
2022/08/24 04:49:31;;;;;;;7.03;3.08;;;;;;;16.51;100.00;101908.38;4911912;29;20184;-49
2022/08/24 04:51:57;;;;;;;6.82;3.20;;;;;;;16.52;100.00;101908.31;4894384;29;20290;-51
2022/08/24 04:54:23;;;;;;;6.38;2.83;;;;;;;16.78;100.00;101906.22;4912285;29;20204;-48
2022/08/24 04:57:01;;;;;;;7.07;3.20;;;;;;;17.25;100.00;101895.84;4910988;29;20183;-52
2022/08/24 04:59:27;;;;;;;6.45;2.83;;;;;;;17.59;100.00;101899.56;4927006;29;20338;-48
2022/08/24 05:01:53;;;;;;;4.85;2.33;;;;;;;17.72;100.00;101907.97;4927178;29;20583;-51
2022/08/24 05:04:20;;;;;;;6.47;2.83;;;;;;;17.86;98.47;101912.69;4913273;28;20200;-52
2022/08/24 05:06:45;;;;;;;4.35;2.33;;;;;;;17.90;96.81;101900.75;4927093;29;20266;-49
2022/08/24 05:09:11;;;;;;;6.78;2.65;;;;;;;17.88;96.04;101900.81;4899757;29;20184;-48
2022/08/24 05:11:39;;;;;;;7.40;2.58;;;;;;;17.98;95.72;101903.06;4911242;29;20224;-51
2022/08/24 05:14:06;;;;;;;8.30;2.33;;;;;;;18.00;95.39;101902.03;4909189;28;20232;-50
2022/08/24 05:16:33;;;;;;;5.15;2.17;;;;;;;17.88;95.70;101900.81;4911099;29;20320;-52
2022/08/24 05:19:01;;;;;;;6.63;2.45;;;;;;;18.05;95.77;101907.22;4910830;29;20180;-50
2022/08/24 05:21:29;;;;;;;7.28;2.42;;;;;;;18.10;96.12;101906.03;4925192;29;20233;-51
2022/08/24 05:23:55;;;;;;;4.85;2.13;;;;;;;18.11;96.16;101913.19;4924982;29;20687;-50
2022/08/24 05:26:25;;;;;;;7.28;2.65;;;;;;;18.43;95.77;101913.31;4904839;29;20225;-51
2022/08/24 05:28:57;;;;;;;5.78;2.33;;;;;;;18.41;95.44;101920.66;4909977;28;20549;-49
2022/08/24 05:31:28;;;;;;;9.50;2.65;;;;;;;18.52;95.00;101922.81;4902241;29;20208;-50
2022/08/24 05:33:58;;;;;;;3.97;2.25;;;;;;;18.74;94.56;101927.94;4909813;29;20224;-51
2022/08/24 05:36:29;;;;;;;5.10;1.92;;;;;;;18.74;94.48;101923.38;4925670;28;20274;-52
2022/08/24 05:38:57;;;;;;;5.22;2.25;;;;;;;18.65;94.22;101922.97;4925596;29;20188;-50
2022/08/24 05:41:23;;;;;;;3.55;2.20;;;;;;;18.81;93.88;101923.06;4926186;29;20184;-52
2022/08/24 05:43:57;;;;;;;5.47;1.80;;;;;;;19.19;93.33;101923.63;4892513;29;20214;-50
2022/08/24 05:46:23;;;;;;;8.43;2.30;;;;;;;19.25;92.09;101917.84;4922231;29;20203;-53
2022/08/24 05:48:50;;;;;;;5.80;2.50;;;;;;;19.24;91.15;101924.25;4904240;28;20179;-49
2022/08/24 05:51:34;;;;;;;4.15;2.17;;;;;;;19.52;90.67;101914.47;4911688;29;20782;-48
2022/08/24 05:54:05;;;;;;;6.38;2.05;;;;;;;19.58;89.86;101908.69;4925918;28;20262;-48
2022/08/24 05:56:53;;;;;;;4.32;1.83;;;;;;;19.51;89.16;101926.31;4926065;29;20191;-48
2022/08/24 05:59:21;;;;;;;4.57;2.22;;;;;;;19.62;88.77;101915.69;4925977;29;20290;-49
2022/08/24 06:01:48;;;;;;;5.80;1.85;;;;;;;19.98;87.33;101922.63;4926000;29;20176;-48
2022/08/24 06:04:14;;;;;;;6.32;2.28;;;;;;;20.07;86.53;101921.22;4910175;29;20646;-49
2022/08/24 06:06:41;;;;;;;5.93;1.83;;;;;;;20.15;85.13;101927.06;4898538;29;20190;-48
2022/08/24 06:09:13;;;;;;;5.03;1.60;;;;;;;20.29;83.77;101921.66;4914917;28;20274;-47
2022/08/24 06:11:51;;;;;;;6.32;1.60;;;;;;;20.19;82.92;101928.63;4925119;29;20219;-46
2022/08/24 06:14:18;;;;;;;4.68;1.40;;;;;;;20.31;82.76;101927.88;4925833;29;20361;-47
2022/08/24 06:16:58;;;;;;;5.55;1.70;;;;;;;20.56;80.87;101921.78;4925904;29;20207;-48
2022/08/24 06:19:25;;;;;;;4.10;1.58;;;;;;;20.82;80.40;101919.28;4909624;29;20256;-49
2022/08/24 06:21:53;;;;;;;6.40;1.63;;;;;;;20.98;79.86;101920.03;4909881;29;20202;-48
2022/08/24 06:27:19;;;;;;;4.53;1.25;;;;;;;21.13;78.94;101920.03;4909548;29;20239;-46
2022/08/24 06:27:20;;;;;;;4.15;1.52;;;;;;;20.85;78.45;101923.66;4910131;29;20659;-46
2022/08/24 06:30:13;;;;;;;3.13;1.60;;;;;;;21.04;77.46;101939.69;4925218;29;20341;-48
2022/08/24 06:32:44;;;;;;;3.10;1.40;;;;;;;20.98;77.34;101939.09;4911625;28;20243;-49
2022/08/24 06:35:19;;;;;;;4.10;1.73;;;;;;;20.84;76.86;101944.56;4909553;29;20298;-48
2022/08/24 06:37:45;;;;;;;3.42;1.40;;;;;;;20.93;77.12;101938.53;4911208;29;20447;-47
2022/08/24 06:40:11;;;;;;;3.80;1.45;;;;;;;21.16;75.56;101930.72;4909212;29;20192;-48
2022/08/24 06:42:37;;;;;;;4.30;1.75;;;;;;;21.17;75.21;101932.47;4925497;29;20566;-47
2022/08/24 06:45:14;;;;;;;4.50;1.50;;;;;;;21.35;74.82;101922.19;4922973;29;20236;-48
2022/08/24 06:47:41;;;;;;;5.43;1.20;;;;;;;21.21;74.65;101925.84;4912417;29;20254;-48
2022/08/24 06:50:07;;;;;;;4.07;1.20;;;;;;;21.85;74.41;101926.13;4912876;29;20714;-48
2022/08/24 06:52:38;;;;;;;5.35;1.75;;;;;;;21.79;73.02;101924.69;4912846;29;20216;-48
2022/08/24 06:55:04;;;;;;;3.60;1.35;;;;;;;21.75;72.84;101922.28;4912681;28;20219;-47
2022/08/24 06:57:30;;;;;;;4.18;1.40;;;;;;;22.07;72.36;101933.72;4928825;29;20214;-49
2022/08/24 06:59:56;;;;;;;5.47;1.75;;;;;;;22.14;71.10;101932.28;4919601;29;20218;-49
2022/08/24 07:02:22;;;;;;;4.40;1.30;;;;;;;21.67;71.80;101938.28;4900817;29;20179;-50
2022/08/24 07:04:48;;;;;;;4.95;1.50;;;;;;;21.61;72.59;101936.84;4928033;29;21246;-49
2022/08/24 07:07:32;;;;;;;3.10;1.40;;;;;;;21.92;72.16;101937.50;4913310;29;20194;-48
2022/08/24 07:09:59;;;;;;;3.17;1.40;;;;;;;22.20;71.01;101933.72;4927579;29;20199;-47
2022/08/24 07:12:25;;;;;;;4.63;1.73;;;;;;;22.31;70.30;101950.28;4910163;29;20243;-54
2022/08/24 07:14:52;;;;;;;2.25;1.25;;;;;;;22.13;70.48;101951.53;4913764;29;20207;-49
2022/08/24 07:17:18;;;;;;;4.30;1.40;;;;;;;21.92;72.00;101948.41;4912317;29;20195;-46
2022/08/24 07:19:45;;;;;;;3.72;1.35;;;;;;;22.20;71.57;101942.78;4911782;29;20184;-50
2022/08/24 07:22:13;;;;;;;2.92;1.40;;;;;;;22.53;70.65;101941.44;4912307;28;20184;-51
2022/08/24 07:24:40;;;;;;;2.33;1.38;;;;;;;22.36;70.27;101956.28;4912084;29;20207;-48
2022/08/24 07:27:05;;;;;;;3.47;1.63;;;;;;;22.61;69.74;101963.63;4912202;29;20270;-53
2022/08/24 07:29:31;;;;;;;2.20;1.27;;;;;;;22.97;69.40;101953.75;4926360;29;20666;-47
2022/08/24 07:31:57;;;;;;;2.22;1.27;;;;;;;23.06;69.29;101965.91;4927877;28;20285;-49
2022/08/24 07:34:32;;;;;;;2.70;1.42;;;;;;;22.99;68.24;101967.31;4909622;28;20207;-52
2022/08/24 07:36:59;;;;;;;3.42;1.40;;;;;;;22.91;68.67;101970.56;4912116;29;20642;-50
2022/08/24 07:39:26;;;;;;;4.60;1.40;;;;;;;22.77;68.76;101965.25;4897500;29;20200;-48
2022/08/24 07:41:52;;;;;;;4.75;1.40;;;;;;;22.59;69.12;101970.19;4927724;29;20186;-48
2022/08/24 07:44:18;;;;;;;3.00;1.52;;;;;;;22.65;68.96;101971.59;4927814;29;20216;-48
2022/08/24 07:46:44;;;;;;;4.53;1.45;;;;;;;22.71;68.14;101979.34;4927508;29;20185;-48
2022/08/24 07:49:11;;;;;;;3.35;1.48;;;;;;;22.83;67.76;101978.47;4927171;29;20270;-49
2022/08/24 07:51:38;;;;;;;3.60;1.30;;;;;;;23.11;67.77;101977.38;4920578;28;20266;-47
2022/08/24 07:54:04;;;;;;;4.18;1.30;;;;;;;23.44;65.83;101974.03;4927294;28;20214;-49
2022/08/24 07:56:36;;;;;;;2.85;1.00;;;;;;;23.76;65.22;101970.72;4911526;29;20540;-48
2022/08/24 07:59:02;;;;;;;5.43;1.58;;;;;;;23.78;63.98;101965.16;4926139;29;20253;-49
2022/08/24 08:01:28;;;;;;;3.85;1.60;;;;;;;23.72;64.07;101976.53;4927517;29;20183;-48
2022/08/24 08:03:54;;;;;;;4.43;1.30;;;;;;;24.16;63.19;101961.31;4911321;29;20714;-49
2022/08/24 08:06:20;;;;;;;3.03;1.15;;;;;;;23.92;63.54;101970.47;4908600;29;20198;-49
2022/08/24 08:08:50;;;;;;;3.10;1.20;;;;;;;24.11;63.37;101972.63;4909485;29;20199;-52
2022/08/24 08:11:16;;;;;;;2.58;1.23;;;;;;;24.00;62.75;101972.59;4895566;29;20227;-49
2022/08/24 08:13:42;;;;;;;3.50;1.40;;;;;;;23.53;64.99;101979.81;4927059;29;20191;-46
2022/08/24 08:16:08;;;;;;;3.28;1.50;;;;;;;23.34;65.34;101978.41;4926913;29;20257;-50
2022/08/24 08:18:34;;;;;;;5.68;1.55;;;;;;;23.78;64.76;101971.50;4927119;29;20940;-51
2022/08/24 08:24:13;;;;;;;2.38;1.15;;;;;;;23.49;64.32;101973.66;4909330;29;20180;-49
2022/08/24 08:26:38;;;;;;;4.78;1.23;;;;;;;24.01;63.06;101963.41;4909662;29;20209;-48
2022/08/24 08:29:10;;;;;;;3.50;1.38;;;;;;;24.17;63.45;101972.16;4907941;29;20689;-53
2022/08/24 08:31:37;;;;;;;2.92;1.23;;;;;;;24.75;61.94;101961.25;4925074;29;20215;-47
2022/08/24 08:34:03;;;;;;;2.20;1.13;;;;;;;24.32;61.70;101969.22;4910342;29;20199;-48
2022/08/24 08:36:30;;;;;;;3.30;1.17;;;;;;;23.73;61.79;101970.09;4908226;28;20187;-49
2022/08/24 08:38:56;;;;;;;2.17;1.30;;;;;;;23.82;61.00;101962.06;4911141;29;20196;-55
2022/08/24 08:41:59;;;;;;;4.47;1.27;;;;;;;24.20;61.17;101968.31;4927067;29;20192;-50
2022/08/24 08:44:47;;;;;;;4.53;1.40;;;;;;;24.18;61.69;101967.53;4925678;29;20631;-48
2022/08/24 08:47:56;;;;;;;3.70;1.13;;;;;;;24.48;61.04;101969.78;4910203;29;20283;-47
2022/08/24 08:50:27;;;;;;;4.07;1.50;;;;;;;23.97;61.82;101970.09;4908883;29;20654;-46
2022/08/24 08:53:23;;;;;;;4.32;1.30;;;;;;;24.36;61.73;101971.59;4910770;29;20679;-48
2022/08/24 08:56:08;;;;;;;3.67;1.25;;;;;;;24.32;60.91;101972.84;4910836;29;20191;-49
2022/08/24 08:58:43;;;;;;;5.97;1.52;;;;;;;24.26;60.26;101976.91;4926360;29;20282;-47
2022/08/24 09:01:23;;;;;;;5.75;1.45;;;;;;;24.64;60.24;101984.03;4910717;29;20175;-47
2022/08/24 09:04:20;;;;;;;4.35;1.35;;;;;;;24.97;58.38;101981.41;4926109;29;20303;-49
2022/08/24 09:07:11;;;;;;;2.22;1.05;;;;;;;24.85;58.53;101977.81;4909813;28;20270;-49
2022/08/24 09:09:54;;;;;;;1.20;1.10;;;;;;;24.62;57.92;101980.53;4912782;28;20706;-48
2022/08/24 09:12:27;;;;;;;2.47;1.27;;;;;;;24.52;57.45;101985.00;4934188;28;20211;-48
2022/08/24 09:15:17;;;;;;;2.88;1.48;;;;;;;24.60;58.77;101977.03;4907266;29;20261;-48
2022/08/24 09:18:11;;;;;;;3.72;1.40;;;;;;;24.70;57.51;101974.44;4925981;29;20215;-49
2022/08/24 09:20:55;;;;;;;3.88;1.30;;;;;;;24.92;57.57;101975.44;4925516;29;20282;-48
2022/08/24 09:23:43;;;;;;;4.00;1.58;;;;;;;25.08;57.61;101963.09;4910556;29;20199;-48
2022/08/24 09:26:26;;;;;;;5.25;1.60;;;;;;;25.01;57.17;101975.56;4908385;29;20210;-47
2022/08/24 09:29:16;;;;;;;3.35;1.50;;;;;;;25.17;57.24;101963.34;4907630;29;20225;-47
2022/08/24 09:31:44;;;;;;;4.00;1.52;;;;;;;25.74;57.08;101962.25;4916858;29;20585;-48
2022/08/24 09:34:37;;;;;;;4.18;1.40;;;;;;;25.67;56.53;101950.03;4912083;29;20207;-47
2022/08/24 09:37:30;;;;;;;5.05;1.52;;;;;;;26.04;56.11;101952.41;4911590;29;20195;-50
2022/08/24 09:40:33;;;;;;;3.08;1.58;;;;;;;25.59;58.77;101950.69;4911521;29;20238;-49
2022/08/24 09:43:25;;;;;;;2.00;1.58;;;;;;;25.49;58.77;101964.34;4910259;28;20195;-47
2022/08/24 09:46:16;;;;;;;5.28;1.50;;;;;;;25.62;55.29;101955.06;4912491;29;20188;-46
2022/08/24 09:49:01;;;;;;;2.42;1.50;;;;;;;26.03;54.47;101950.69;4907730;29;20187;-46
2022/08/24 09:51:32;;;;;;;5.43;1.50;;;;;;;25.83;55.11;101953.22;4911053;28;20672;-47
2022/08/24 09:54:32;;;;;;;7.18;1.25;;;;;;;26.15;54.42;101946.88;4921261;28;20553;-47
2022/08/24 09:57:30;;;;;;;4.22;1.38;;;;;;;26.28;55.01;101949.41;4911317;29;20175;-47
2022/08/24 10:00:23;;;;;;;3.38;1.52;;;;;;;26.47;55.73;101951.44;4937118;28;20207;-46
2022/08/24 10:03:14;;;;;;;3.47;1.60;;;;;;;26.54;54.59;101946.25;4910005;29;20283;-46
2022/08/24 10:06:01;;;;;;;2.70;1.20;;;;;;;26.19;55.51;101942.84;4910137;29;20428;-47
2022/08/24 10:08:33;;;;;;;2.90;1.38;;;;;;;26.40;54.68;101942.84;4911429;29;20232;-47
2022/08/24 10:11:01;;;;;;;2.60;1.27;;;;;;;26.21;54.59;101943.59;4911335;29;20256;-48
2022/08/24 10:13:35;;;;;;;5.50;1.35;;;;;;;26.17;52.61;101939.34;4911425;29;20222;-48
2022/08/24 10:16:19;;;;;;;3.35;1.10;;;;;;;26.29;52.72;101942.94;4908804;29;20248;-47
2022/08/24 10:19:17;;;;;;;4.25;1.30;;;;;;;27.04;51.71;101938.13;4910747;29;20204;-49
2022/08/24 10:22:13;;;;;;;2.72;1.15;;;;;;;26.66;50.98;101940.56;4910138;29;20215;-50
2022/08/24 10:25:07;;;;;;;3.58;1.50;;;;;;;26.46;53.42;101945.06;4914161;28;20230;-46
2022/08/24 10:27:44;;;;;;;3.13;1.30;;;;;;;26.72;53.98;101939.16;4930614;28;20226;-48
2022/08/24 10:30:34;;;;;;;2.95;1.10;;;;;;;27.00;53.88;101936.66;4912396;29;20185;-48
2022/08/24 10:33:44;;;;;;;5.93;1.35;;;;;;;26.13;53.43;101935.16;4914851;29;20231;-48
2022/08/24 10:36:30;;;;;;;2.92;1.13;;;;;;;26.52;52.02;101941.78;4946996;29;20190;-46
2022/08/24 10:42:10;;;;;;;4.53;1.55;;;;;;;26.73;52.71;101924.41;4912708;29;20223;-46
2022/08/24 10:44:45;;;;;;;4.05;1.63;;;;;;;26.63;53.63;101932.63;4914772;28;20210;-49
2022/08/24 10:47:27;;;;;;;3.75;1.75;;;;;;;26.42;53.67;101926.25;4914488;29;20178;-47
2022/08/24 10:50:11;;;;;;;4.00;1.63;;;;;;;26.61;53.39;101929.13;4912521;29;20187;-49
2022/08/24 10:52:42;;;;;;;4.38;1.40;;;;;;;26.59;52.41;101931.16;4912396;29;20718;-48
2022/08/24 10:55:14;;;;;;;4.55;1.48;;;;;;;27.04;53.02;101932.63;4913207;28;20636;-46
2022/08/24 10:58:06;;;;;;;6.53;1.80;;;;;;;26.68;53.42;101941.31;4914377;29;20661;-47
2022/08/24 11:00:32;;;;;;;2.53;1.17;;;;;;;26.62;52.57;101939.09;4912700;29;20270;-48
2022/08/24 11:03:12;;;;;;;3.40;1.40;;;;;;;26.47;52.36;101938.53;4914090;29;20278;-48
2022/08/24 11:05:50;;;;;;;3.53;1.23;;;;;;;26.85;52.66;101928.81;4914355;29;20199;-46
2022/08/24 11:08:32;;;;;;;2.72;1.20;;;;;;;26.86;51.91;101918.66;4914449;29;20236;-48
2022/08/24 11:11:21;;;;;;;3.88;1.33;;;;;;;27.16;51.72;101920.50;4913528;28;20327;-48
2022/08/24 11:13:59;;;;;;;3.42;1.38;;;;;;;27.30;49.19;101924.78;4913610;28;20222;-48
2022/08/24 11:16:29;;;;;;;4.03;1.25;;;;;;;27.31;49.55;101926.50;4910850;29;20187;-47
2022/08/24 11:18:56;;;;;;;2.03;1.35;;;;;;;27.13;49.88;101929.03;4912314;29;20195;-47
2022/08/24 11:21:31;;;;;;;4.35;1.60;;;;;;;26.87;49.61;101928.66;4913800;29;20345;-47
2022/08/24 11:24:03;;;;;;;2.63;1.30;;;;;;;26.55;50.33;101929.63;4911746;29;20199;-50
2022/08/24 11:26:29;;;;;;;2.35;1.30;;;;;;;27.04;50.90;101932.63;4913703;29;20188;-46
2022/08/24 11:29:00;;;;;;;2.13;1.55;;;;;;;27.08;49.08;101912.94;4927407;29;20435;-48
2022/08/24 11:31:28;;;;;;;2.75;1.23;;;;;;;27.22;49.02;101931.00;4913184;29;20694;-50
2022/08/24 11:34:09;;;;;;;2.50;1.45;;;;;;;27.17;48.79;101921.38;4908901;29;20210;-51
2022/08/24 11:36:37;;;;;;;6.78;2.00;;;;;;;26.58;50.11;101932.13;4913705;29;20677;-46
2022/08/24 11:39:33;;;;;;;3.20;1.40;;;;;;;27.09;50.61;101925.72;4918440;28;20253;-46
2022/08/24 11:42:14;;;;;;;8.77;1.63;;;;;;;27.50;49.00;101926.53;4914210;28;20320;-48
2022/08/24 11:44:55;;;;;;;3.70;1.40;;;;;;;27.50;47.50;101932.03;4912967;28;20253;-50
2022/08/24 11:47:41;;;;;;;3.80;1.65;;;;;;;27.06;48.30;101938.88;4912345;29;20294;-48
2022/08/24 11:50:43;;;;;;;15.43;2.63;;;;;;;27.08;47.21;101945.09;4915020;28;20286;-49
2022/08/24 11:53:08;;;;;;;4.13;1.60;;;;;;;26.96;47.90;101938.84;4912330;29;20215;-48
2022/08/24 11:55:45;;;;;;;4.38;1.27;;;;;;;26.94;49.58;101935.34;4913318;29;20579;-46
2022/08/24 11:58:19;;;;;;;5.38;1.40;;;;;;;26.71;48.86;101945.66;4909553;29;20188;-51